Pays
Station

 

Conditions  météo  pour  Alton/St. Louis Regional  -  Etats-Unis    Etats-Unis

  
-6 °C
    
 
 

METAR pour Alton/St. Louis Regional :

KALN 212147Z 12015KT 10SM OVC200 M06/M09 A3034

 

Voici le bulletin pour Alton/St. Louis Regional - Etats-Unis.
 
Le bulletin a été fait il y a 38 minutes, à 21:47 UTC .
Le vent soufflait à la vitesse de 7.7 mètres par seconde de Est/Sud-est (120°).
 
La température était de -6 °C, avec un point de rosée à -9 °C.
La température ressentie était de -14 °C.
 
La pression atmosphérique était de 1027 hPa.
L'humidité relative était de 79.2%.
 
Le ciel était nuageux à partir d'une hauteur de 6096 mètres
 
La visibilité globale était de 16.1 kilomètres.
 

 
 
 

Pays :   A   B   C   D   E   F   G   H   I   J   K   L   M   N   O   P   Q   R   S   T   U   V   W   Y   Z

 

Partenaires :  Info Météo avec Met'info
Météo Marine avec MeteoMarine.net
Infos Site  |  Infos Légales  |  Crédits  |  Confidentialité
Contactez-nous  |  Ajouter aux favoris
© 2013-2019 METAR - Tous droits réservés